Time;durP1;ratioP1;P1;durP2;ratioP2;P2;SDS_P1;SDS_P2;PMS_P1;PMS_P2;Temp;Humidity;BMP_temperature;BMP_pressure;BME280_temperature;BME280_humidity;BME280_pressure;Samples;Min_cycle;Max_cycle;Signal;HPM_P1;HPM_P2
2022/01/18 00:01:07;;;;;;;;;;;;;;;20.41;41.51;103628.22;4953929;28;20033;-82
2022/01/18 00:03:32;;;;;;;;;;;;;;;20.40;41.36;103630.16;4951910;28;20414;-83
2022/01/18 00:05:57;;;;;;;;;;;;;;;20.39;41.52;103624.91;4952518;29;20327;-82
2022/01/18 00:08:23;;;;;;;;;;;;;;;20.38;41.58;103635.03;4954939;29;19918;-82
2022/01/18 00:10:49;;;;;;;;;;;;;;;20.38;41.27;103636.94;4954084;28;20339;-82
2022/01/18 00:14:02;;;;;;;;;;;;;;;20.37;41.42;103627.06;4954493;29;19923;-83
2022/01/18 00:18:31;;;;;;;;;;;;;;;20.35;41.32;103623.69;4948872;29;19973;-82
2022/01/18 00:23:32;;;;;;;;;;;;;;;20.32;41.10;103634.09;4954027;28;19957;-81
2022/01/18 00:25:58;;;;;;;;;;;;;;;20.31;41.09;103635.16;4969344;28;19922;-81
2022/01/18 00:28:24;;;;;;;;;;;;;;;20.31;41.27;103645.31;4951893;29;19926;-81
2022/01/18 00:33:38;;;;;;;;;;;;;;;20.30;41.16;103652.69;4954493;28;20451;-82
2022/01/18 00:36:03;;;;;;;;;;;;;;;20.28;40.99;103660.31;4954061;28;19927;-82
2022/01/18 00:38:43;;;;;;;;;;;;;;;20.28;41.15;103654.84;4905191;28;1789433;-81
2022/01/18 00:41:09;;;;;;;;;;;;;;;20.26;41.04;103659.75;4949087;28;19973;-81
2022/01/18 00:43:34;;;;;;;;;;;;;;;20.26;41.10;103662.50;4952465;28;19918;-82
2022/01/18 00:45:59;;;;;;;;;;;;;;;20.26;41.13;103673.47;4952979;29;20022;-82
2022/01/18 00:48:24;;;;;;;;;;;;;;;20.26;40.89;103673.47;4952218;28;20272;-82
2022/01/18 00:50:52;;;;;;;;;;;;;;;20.26;41.06;103673.47;4954543;28;20414;-82
2022/01/18 00:53:19;;;;;;;;;;;;;;;20.25;40.88;103673.69;4955142;28;20450;-82
2022/01/18 00:55:52;;;;;;;;;;;;;;;20.24;40.87;103674.78;4953206;29;20005;-82
2022/01/18 00:58:17;;;;;;;;;;;;;;;20.23;41.04;103673.09;4952641;29;20501;-82
2022/01/18 01:00:43;;;;;;;;;;;;;;;20.22;41.05;103677.75;4953362;29;19930;-83
2022/01/18 01:03:08;;;;;;;;;;;;;;;20.22;41.00;103668.69;4953164;28;20339;-82
2022/01/18 01:05:34;;;;;;;;;;;;;;;20.21;40.81;103669.75;4954024;28;19922;-82
2022/01/18 01:08:00;;;;;;;;;;;;;;;20.20;41.07;103671.66;4953260;28;19933;-81
2022/01/18 01:10:25;;;;;;;;;;;;;;;20.20;41.12;103673.56;4960500;28;20016;-81
2022/01/18 01:12:50;;;;;;;;;;;;;;;20.19;40.92;103678.25;4954769;28;20072;-82
2022/01/18 01:15:18;;;;;;;;;;;;;;;20.19;40.83;103680.16;4953084;28;19941;-82
2022/01/18 01:41:48;;;;;;;;;;;;;;;20.09;40.55;103670.56;4952540;29;19977;-82
2022/01/18 01:46:40;;;;;;;;;;;;;;;20.08;40.56;103671.66;4953256;28;19996;-82
2022/01/18 01:49:11;;;;;;;;;;;;;;;20.08;40.29;103673.53;4953010;29;20025;-82
2022/01/18 01:51:37;;;;;;;;;;;;;;;20.07;40.42;103669.97;4952944;29;19926;-81
2022/01/18 01:54:06;;;;;;;;;;;;;;;20.06;40.50;103675.72;4953873;28;20414;-82
2022/01/18 01:56:32;;;;;;;;;;;;;;;20.06;40.44;103672.97;4955943;28;19934;-81
2022/01/18 01:58:58;;;;;;;;;;;;;;;20.05;40.42;103676.78;4958432;28;19926;-82
2022/01/18 02:01:23;;;;;;;;;;;;;;;20.04;40.44;103677.84;4956613;29;19926;-82
2022/01/18 02:03:48;;;;;;;;;;;;;;;20.03;40.51;103671.53;4955868;28;19919;-81
2022/01/18 02:06:14;;;;;;;;;;;;;;;20.03;40.49;103665.19;4956055;29;20256;-82
2022/01/18 02:08:39;;;;;;;;;;;;;;;20.03;40.39;103667.94;4957251;28;19948;-82
2022/01/18 02:11:05;;;;;;;;;;;;;;;20.01;40.13;103670.94;4957502;28;20381;-81
2022/01/18 02:13:32;;;;;;;;;;;;;;;20.01;40.45;103667.34;4940583;29;19929;-81
2022/01/18 02:23:53;;;;;;;;;;;;;;;19.97;40.43;103666.97;4956898;29;20017;-82
2022/01/18 02:26:19;;;;;;;;;;;;;;;19.97;40.20;103674.38;4956571;29;19961;-82
2022/01/18 02:28:44;;;;;;;;;;;;;;;19.97;40.38;103686.19;4954691;29;19982;-82
2022/01/18 02:31:09;;;;;;;;;;;;;;;19.96;40.16;103672.69;4972085;28;19926;-82
2022/01/18 02:33:34;;;;;;;;;;;;;;;19.95;40.23;103668.28;4955826;29;20287;-81
2022/01/18 02:35:59;;;;;;;;;;;;;;;19.95;40.15;103660.03;4955430;29;19958;-82
2022/01/18 02:38:25;;;;;;;;;;;;;;;19.93;40.34;103657.53;4957490;28;19926;-82
2022/01/18 02:40:50;;;;;;;;;;;;;;;19.93;40.24;103654.78;4969494;28;19927;-82
2022/01/18 02:45:59;;;;;;;;;;;;;;;19.92;40.44;103663.25;4947253;29;19973;-82
2022/01/18 02:48:25;;;;;;;;;;;;;;;19.91;40.25;103667.94;4956280;29;19922;-82
2022/01/18 02:50:51;;;;;;;;;;;;;;;19.89;40.10;103657.19;4970468;28;19926;-82
2022/01/18 02:53:19;;;;;;;;;;;;;;;19.89;40.17;103657.19;4955579;29;20399;-81
2022/01/18 02:55:51;;;;;;;;;;;;;;;19.89;40.30;103650.84;4964385;28;20319;-81
2022/01/18 02:58:24;;;;;;;;;;;;;;;19.87;40.23;103645.59;4956601;28;20018;-82
2022/01/18 03:03:30;;;;;;;;;;;;;;;19.85;40.13;103650.47;4956048;29;19929;-82
2022/01/18 03:05:57;;;;;;;;;;;;;;;19.85;40.20;103658.69;4956948;28;20294;-82
2022/01/18 03:08:23;;;;;;;;;;;;;;;19.84;40.33;103654.31;4971288;28;19933;-82
2022/01/18 03:10:48;;;;;;;;;;;;;;;19.84;40.17;103664.44;4955624;28;19922;-82
2022/01/18 03:13:13;;;;;;;;;;;;;;;19.83;40.03;103663.63;4953800;29;19929;-82
2022/01/18 03:15:39;;;;;;;;;;;;;;;19.83;40.03;103665.50;4971229;28;19989;-81
2022/01/18 03:18:07;;;;;;;;;;;;;;;19.83;40.19;103673.72;4940583;29;19961;-82
2022/01/18 03:20:32;;;;;;;;;;;;;;;19.82;40.18;103669.31;4958470;28;19926;-82
2022/01/18 03:22:57;;;;;;;;;;;;;;;19.81;40.13;103675.88;4954605;28;20009;-82
2022/01/18 03:25:40;;;;;;;;;;;;;;;19.81;40.17;103678.63;4971388;28;19927;-82
2022/01/18 03:28:07;;;;;;;;;;;;;;;19.79;40.22;103681.59;4941039;29;19961;-82
2022/01/18 03:30:33;;;;;;;;;;;;;;;19.78;40.09;103679.94;4966946;28;20064;-82
2022/01/18 03:33:00;;;;;;;;;;;;;;;19.78;40.22;103679.94;4955821;28;19929;-82
2022/01/18 03:35:26;;;;;;;;;;;;;;;19.77;40.11;103672.75;4955193;28;19927;-82
2022/01/18 03:37:51;;;;;;;;;;;;;;;19.78;40.27;103679.06;4968782;28;20005;-82
2022/01/18 03:40:17;;;;;;;;;;;;;;;19.76;40.18;103675.75;4955200;28;20083;-82
2022/01/18 03:42:44;;;;;;;;;;;;;;;19.76;40.04;103679.31;4955795;28;19926;-81
2022/01/18 03:45:13;;;;;;;;;;;;;;;19.76;40.29;103682.06;4955830;28;19926;-82
2022/01/18 03:47:38;;;;;;;;;;;;;;;19.75;40.25;103685.03;4969921;28;19945;-82
2022/01/18 03:50:05;;;;;;;;;;;;;;;19.74;40.04;103681.47;4955707;28;20323;-82
2022/01/18 03:52:30;;;;;;;;;;;;;;;19.73;40.08;103679.78;4955066;29;20013;-83
2022/01/18 03:54:55;;;;;;;;;;;;;;;19.73;40.00;103677.06;4955283;28;20729;-82
2022/01/18 03:57:21;;;;;;;;;;;;;;;19.72;40.14;103678.09;4953939;29;19953;-81
2022/01/18 03:59:47;;;;;;;;;;;;;;;19.71;40.02;103679.19;4955886;28;19918;-82
2022/01/18 04:02:12;;;;;;;;;;;;;;;19.71;40.09;103690.16;4954776;29;19922;-82
2022/01/18 04:04:38;;;;;;;;;;;;;;;19.70;40.21;103687.63;4955369;28;20268;-82
2022/01/18 04:07:03;;;;;;;;;;;;;;;19.69;40.20;103683.22;4937871;29;19933;-82
2022/01/18 04:09:29;;;;;;;;;;;;;;;19.68;40.04;103690.63;4953279;28;19962;-82
2022/01/18 04:11:54;;;;;;;;;;;;;;;19.67;40.14;103684.28;4953762;29;19930;-82
2022/01/18 04:14:19;;;;;;;;;;;;;;;19.67;40.07;103687.03;4956165;28;20340;-84
2022/01/18 04:17:01;;;;;;;;;;;;;;;19.67;40.15;103698.00;4954828;28;19922;-84
2022/01/18 04:27:26;;;;;;;;;;;;;;;19.64;40.23;103711.31;4955337;29;20312;-82
2022/01/18 04:29:51;;;;;;;;;;;;;;;19.63;40.27;103705.00;4952012;28;20013;-82
2022/01/18 04:32:17;;;;;;;;;;;;;;;19.62;40.07;103700.56;4952960;28;19926;-82
2022/01/18 04:34:42;;;;;;;;;;;;;;;19.62;40.05;103699.75;4954897;29;19933;-82
2022/01/18 04:37:07;;;;;;;;;;;;;;;19.61;40.25;103698.06;4969361;28;20282;-83
2022/01/18 04:39:37;;;;;;;;;;;;;;;19.61;40.24;103701.66;4953905;28;20511;-81
2022/01/18 04:42:03;;;;;;;;;;;;;;;19.60;40.08;103696.38;4953872;28;19930;-81
2022/01/18 04:48:25;;;;;;;;;;;;;;;19.59;40.28;103701.03;4955371;28;20001;-82
2022/01/18 04:50:03;;;;;;;;;;;;;;;19.58;40.14;103702.13;4953265;29;20352;-82
2022/01/18 04:52:29;;;;;;;;;;;;;;;19.57;40.07;103703.16;4954826;28;20410;-82
2022/01/18 04:54:59;;;;;;;;;;;;;;;19.56;40.16;103703.41;4951492;29;20018;-81
2022/01/18 05:00:09;;;;;;;;;;;;;;;19.56;40.01;103703.41;4957547;29;19941;-82
2022/01/18 05:02:34;;;;;;;;;;;;;;;19.55;40.15;103705.28;4955509;28;19923;-81
2022/01/18 05:05:00;;;;;;;;;;;;;;;19.54;40.16;103713.78;4952414;29;19927;-82
2022/01/18 05:07:25;;;;;;;;;;;;;;;19.53;40.11;103715.69;4937483;29;19923;-82
2022/01/18 05:09:52;;;;;;;;;;;;;;;19.53;40.15;103718.44;4953134;29;19945;-81
2022/01/18 05:12:28;;;;;;;;;;;;;;;19.52;40.22;103718.66;4954441;28;19934;-82
2022/01/18 05:14:54;;;;;;;;;;;;;;;19.51;40.11;103715.06;4953384;28;19933;-82
2022/01/18 05:17:37;;;;;;;;;;;;;;;19.51;40.11;103720.56;4969362;28;19919;-82
2022/01/18 05:23:01;;;;;;;;;;;;;;;19.49;40.17;103702.66;4952879;28;19918;-81
2022/01/18 05:25:28;;;;;;;;;;;;;;;19.49;40.26;103722.69;4937180;29;19933;-82
2022/01/18 05:27:54;;;;;;;;;;;;;;;19.48;40.04;103721.03;4951964;29;19933;-81
2022/01/18 05:30:19;;;;;;;;;;;;;;;19.47;39.95;103719.34;4953802;28;19922;-82
2022/01/18 05:32:45;;;;;;;;;;;;;;;19.48;40.11;103723.75;4953316;28;19922;-82
2022/01/18 05:35:10;;;;;;;;;;;;;;;19.47;40.02;103722.06;4935950;29;20303;-82
2022/01/18 05:37:35;;;;;;;;;;;;;;;19.45;39.95;103716.84;4939480;29;20275;-82
2022/01/18 05:40:00;;;;;;;;;;;;;;;19.45;40.01;103721.47;4965723;28;19929;-81
2022/01/18 05:42:26;;;;;;;;;;;;;;;19.45;40.34;103715.97;4944375;29;19919;-82
2022/01/18 05:44:51;;;;;;;;;;;;;;;19.44;40.07;103715.16;4952430;28;19930;-82
2022/01/18 05:47:16;;;;;;;;;;;;;;;19.44;40.06;103717.06;4951322;29;19973;-82
2022/01/18 05:49:42;;;;;;;;;;;;;;;19.42;40.25;103709.06;4968079;28;19926;-82
2022/01/18 05:52:07;;;;;;;;;;;;;;;19.42;40.28;103706.31;4953088;29;19923;-82
2022/01/18 05:54:32;;;;;;;;;;;;;;;19.41;40.08;103710.13;4936388;29;19934;-82
2022/01/18 05:56:57;;;;;;;;;;;;;;;19.41;40.09;103710.13;4952554;29;19978;-82
2022/01/18 05:59:24;;;;;;;;;;;;;;;19.41;40.16;103709.31;4951784;29;19926;-82
2022/01/18 06:01:51;;;;;;;;;;;;;;;19.40;40.11;103704.88;4954103;28;19929;-82
2022/01/18 06:06:51;;;;;;;;;;;;;;;19.40;40.00;103707.59;4953753;28;19926;-83
2022/01/18 06:07:04;;;;;;;;;;;;;;;19.39;40.17;103714.16;4952579;29;19922;-82
2022/01/18 06:09:29;;;;;;;;;;;;;;;19.39;40.19;103722.41;4936009;29;20013;-82
2022/01/18 06:11:55;;;;;;;;;;;;;;;19.38;39.94;103712.50;4951774;28;20287;-81
2022/01/18 06:14:20;;;;;;;;;;;;;;;19.38;40.24;103710.59;4968553;28;20359;-82
2022/01/18 06:16:45;;;;;;;;;;;;;;;19.37;39.98;103708.91;4968620;28;19918;-82
2022/01/18 06:19:11;;;;;;;;;;;;;;;19.36;40.03;103717.38;4953532;28;19918;-82
2022/01/18 06:21:36;;;;;;;;;;;;;;;19.36;40.26;103703.66;4953107;28;19934;-82
2022/01/18 06:24:02;;;;;;;;;;;;;;;19.36;40.40;103714.63;4951435;28;19937;-82
2022/01/18 06:26:27;;;;;;;;;;;;;;;19.36;40.11;103712.72;4968168;28;19919;-84
2022/01/18 06:28:55;;;;;;;;;;;;;;;19.35;40.18;103713.81;4952517;28;19929;-83
2022/01/18 06:31:20;;;;;;;;;;;;;;;19.35;40.15;103707.47;4950965;29;19922;-84
2022/01/18 06:33:46;;;;;;;;;;;;;;;19.36;40.14;103709.97;4952927;28;20315;-84
2022/01/18 06:36:11;;;;;;;;;;;;;;;19.36;40.69;103706.41;4951384;29;19933;-83
2022/01/18 06:38:36;;;;;;;;;;;;;;;19.36;40.56;103704.50;4952228;28;19926;-83
2022/01/18 06:41:03;;;;;;;;;;;;;;;19.37;40.64;103710.81;4935294;29;20017;-84
2022/01/18 06:43:28;;;;;;;;;;;;;;;19.36;40.93;103707.25;4955707;28;19922;-83
2022/01/18 06:45:54;;;;;;;;;;;;;;;19.37;40.91;103708.06;4955774;28;20021;-83
2022/01/18 06:48:19;;;;;;;;;;;;;;;19.37;40.93;103705.34;4956200;29;19927;-84
2022/01/18 06:50:44;;;;;;;;;;;;;;;19.36;40.86;103706.41;4956399;29;19927;-84
2022/01/18 06:53:09;;;;;;;;;;;;;;;19.36;40.81;103711.91;4955102;28;20430;-81
2022/01/18 06:55:35;;;;;;;;;;;;;;;19.37;40.90;103717.13;4954068;29;19969;-84
2022/01/18 06:58:01;;;;;;;;;;;;;;;19.36;41.14;103717.38;4971526;28;20013;-85
2022/01/18 07:00:26;;;;;;;;;;;;;;;19.36;41.06;103718.22;4955206;29;19981;-85
2022/01/18 07:02:52;;;;;;;;;;;;;;;19.36;41.09;103718.22;4972293;28;20024;-84
2022/01/18 07:05:17;;;;;;;;;;;;;;;19.36;41.17;103729.16;4939289;29;20394;-84
2022/01/18 07:07:42;;;;;;;;;;;;;;;19.36;41.04;103718.22;4953911;29;20371;-84
2022/01/18 07:10:08;;;;;;;;;;;;;;;19.35;41.17;103726.66;4955082;29;19922;-83
2022/01/18 07:12:35;;;;;;;;;;;;;;;19.36;41.00;103728.34;4956017;28;19930;-83
2022/01/18 07:15:03;;;;;;;;;;;;;;;19.35;40.93;103726.66;4949716;28;20009;-82
2022/01/18 07:17:28;;;;;;;;;;;;;;;19.35;41.20;103729.38;4965860;28;20250;-84
2022/01/18 07:19:53;;;;;;;;;;;;;;;19.35;41.17;103735.72;4969664;28;20009;-88
2022/01/18 07:22:19;;;;;;;;;;;;;;;19.35;41.46;103743.97;4968456;28;19923;-86
2022/01/18 07:24:45;;;;;;;;;;;;;;;19.35;41.26;103737.63;4937913;29;19962;-84
2022/01/18 07:27:12;;;;;;;;;;;;;;;19.35;41.10;103737.63;4951503;28;19935;-82
2022/01/18 07:29:38;;;;;;;;;;;;;;;19.35;41.27;103743.97;4952202;29;20299;-82
2022/01/18 07:32:04;;;;;;;;;;;;;;;19.36;41.20;103739.31;4953795;28;19934;-82
2022/01/18 07:34:32;;;;;;;;;;;;;;;19.36;41.26;103742.03;4951243;28;19919;-82
2022/01/18 07:36:57;;;;;;;;;;;;;;;19.35;41.24;103749.44;4967508;28;19934;-82
2022/01/18 07:39:22;;;;;;;;;;;;;;;19.36;41.51;103742.03;4951989;28;19930;-82
2022/01/18 07:41:48;;;;;;;;;;;;;;;19.35;41.51;103743.97;4953493;28;19927;-80
2022/01/18 07:44:13;;;;;;;;;;;;;;;19.37;41.43;103746.44;4951759;28;20013;-82
2022/01/18 07:46:38;;;;;;;;;;;;;;;19.36;41.32;103737.41;4968665;28;19922;-90
2022/01/18 07:49:03;;;;;;;;;;;;;;;19.37;41.44;103736.31;4951339;29;19966;-87
2022/01/18 07:51:29;;;;;;;;;;;;;;;19.37;41.74;103747.28;4953047;28;19937;-87
2022/01/18 07:53:54;;;;;;;;;;;;;;;19.38;41.63;103738.00;4935408;29;20271;-88
2022/01/18 07:56:19;;;;;;;;;;;;;;;19.38;41.75;103748.97;4936585;29;20056;-86
2022/01/18 07:58:45;;;;;;;;;;;;;;;19.40;41.87;103748.72;4953070;28;20367;-81
2022/01/18 08:01:10;;;;;;;;;;;;;;;19.41;41.90;103753.16;4951163;28;20021;-89
2022/01/18 08:03:35;;;;;;;;;;;;;;;19.42;42.15;103749.34;4953071;29;20276;-84
2022/01/18 08:06:01;;;;;;;;;;;;;;;19.42;41.85;103754.81;4967158;28;19929;-84
2022/01/18 08:08:27;;;;;;;;;;;;;;;19.43;41.86;103754.59;4952232;28;20360;-86
2022/01/18 08:10:52;;;;;;;;;;;;;;;19.45;42.11;103751.63;4953267;28;19930;-85
2022/01/18 08:13:17;;;;;;;;;;;;;;;19.45;42.08;103752.47;4967363;28;20266;-86
2022/01/18 08:15:44;;;;;;;;;;;;;;;19.47;42.11;103752.22;4967409;28;20081;-88
2022/01/18 08:18:14;;;;;;;;;;;;;;;19.48;42.03;103748.44;4968109;28;19922;-83
2022/01/18 08:20:39;;;;;;;;;;;;;;;19.50;41.92;103751.75;4961354;28;20295;-84
2022/01/18 08:23:05;;;;;;;;;;;;;;;19.51;41.92;103755.38;4948218;28;19933;-83
2022/01/18 08:25:30;;;;;;;;;;;;;;;19.54;41.88;103746.69;4951067;29;19918;-84
2022/01/18 08:27:57;;;;;;;;;;;;;;;19.55;42.06;103748.34;4949417;28;20415;-87
2022/01/18 08:30:22;;;;;;;;;;;;;;;19.56;42.06;103750.84;4949690;28;19925;-84
2022/01/18 08:32:48;;;;;;;;;;;;;;;19.59;42.05;103760.53;4965114;28;19930;-87
2022/01/18 08:35:14;;;;;;;;;;;;;;;19.61;41.93;103756.50;4950242;28;19973;-84
2022/01/18 08:37:39;;;;;;;;;;;;;;;19.62;42.17;103749.94;4952171;28;19923;-83
2022/01/18 08:40:05;;;;;;;;;;;;;;;19.65;42.15;103756.84;4965115;28;19930;-86
2022/01/18 08:42:31;;;;;;;;;;;;;;;19.66;42.30;103753.88;4949392;28;19918;-85
2022/01/18 08:44:56;;;;;;;;;;;;;;;19.70;42.30;103751.53;4948074;28;20290;-84
2022/01/18 08:47:21;;;;;;;;;;;;;;;19.73;42.20;103755.72;4949771;28;20820;-83
2022/01/18 08:49:47;;;;;;;;;;;;;;;19.75;42.10;103748.94;4944382;29;19937;-83
2022/01/18 08:52:12;;;;;;;;;;;;;;;19.77;42.11;103757.78;4963368;28;19922;-82
2022/01/18 08:54:38;;;;;;;;;;;;;;;19.79;42.28;103747.41;4961451;28;20572;-83
2022/01/18 08:57:03;;;;;;;;;;;;;;;19.82;42.05;103743.38;4959646;28;20008;-84
2022/01/18 08:59:30;;;;;;;;;;;;;;;19.84;42.38;103747.56;4950643;28;19930;-86
2022/01/18 09:01:58;;;;;;;;;;;;;;;19.87;41.97;103752.56;4948569;28;19918;-87
2022/01/18 09:04:24;;;;;;;;;;;;;;;19.88;42.08;103754.28;4947427;29;20302;-83
2022/01/18 09:06:51;;;;;;;;;;;;;;;19.92;42.34;103756.53;4946091;28;19922;-84
2022/01/18 09:09:17;;;;;;;;;;;;;;;19.94;42.21;103760.72;4948722;29;19931;-84
2022/01/18 09:11:44;;;;;;;;;;;;;;;19.96;42.32;103755.00;4953041;28;19922;-87
2022/01/18 09:14:09;;;;;;;;;;;;;;;19.98;42.29;103761.94;4949558;28;19923;-85
2022/01/18 09:16:35;;;;;;;;;;;;;;;19.99;42.08;103760.88;4959950;28;19928;-83
2022/01/18 09:19:00;;;;;;;;;;;;;;;20.02;42.22;103765.88;4948341;28;19926;-84
2022/01/18 09:21:26;;;;;;;;;;;;;;;20.04;42.33;103768.41;4948656;28;19923;-82
2022/01/18 09:23:52;;;;;;;;;;;;;;;20.04;42.15;103763.75;4947857;28;19923;-82
2022/01/18 09:26:17;;;;;;;;;;;;;;;20.06;42.00;103764.34;4949134;28;19933;-81
2022/01/18 09:28:42;;;;;;;;;;;;;;;20.09;42.36;103765.78;4962834;28;21161;-80
2022/01/18 09:31:08;;;;;;;;;;;;;;;20.10;42.02;103764.72;4941235;29;19936;-81
2022/01/18 09:33:33;;;;;;;;;;;;;;;20.12;42.11;103768.06;4949483;28;19923;-79
2022/01/18 09:35:58;;;;;;;;;;;;;;;20.13;41.83;103763.41;4943805;28;20605;-81
2022/01/18 09:38:23;;;;;;;;;;;;;;;20.14;41.92;103767.84;4932428;29;19937;-81
2022/01/18 09:40:49;;;;;;;;;;;;;;;20.14;41.87;103768.69;4947464;28;19989;-80
2022/01/18 09:43:16;;;;;;;;;;;;;;;20.15;42.03;103769.50;4949123;28;20910;-82
2022/01/18 09:45:42;;;;;;;;;;;;;;;20.14;41.77;103771.41;4947765;28;19933;-82
2022/01/18 09:48:08;;;;;;;;;;;;;;;20.15;41.91;103772.25;4950339;28;20005;-78
2022/01/18 09:50:35;;;;;;;;;;;;;;;20.16;41.67;103779.41;4947601;28;20521;-79
2022/01/18 09:53:01;;;;;;;;;;;;;;;20.16;41.63;103773.91;4949821;28;19981;-80
2022/01/18 09:55:29;;;;;;;;;;;;;;;20.16;41.76;103780.25;4952333;28;19919;-81
2022/01/18 09:57:54;;;;;;;;;;;;;;;20.17;41.68;103784.66;4949450;28;20413;-80
2022/01/18 10:00:20;;;;;;;;;;;;;;;20.17;41.68;103781.91;4948511;29;19926;-80
2022/01/18 10:02:46;;;;;;;;;;;;;;;20.19;41.66;103785.28;4948826;28;19919;-80
2022/01/18 10:05:17;;;;;;;;;;;;;;;20.20;41.38;103791.59;4952236;28;19930;-80
2022/01/18 10:07:43;;;;;;;;;;;;;;;20.19;41.34;103793.50;4964446;28;19934;-78
2022/01/18 10:10:09;;;;;;;;;;;;;;;20.20;41.37;103789.69;4963438;28;19931;-79
2022/01/18 10:12:34;;;;;;;;;;;;;;;20.20;41.37;103784.19;4947267;29;19929;-81
2022/01/18 10:15:00;;;;;;;;;;;;;;;20.21;41.39;103777.66;4949931;28;20021;-79
2022/01/18 10:17:39;;;;;;;;;;;;;;;20.22;41.58;103779.31;4945826;28;19933;-79
2022/01/18 10:20:09;;;;;;;;;;;;;;;20.22;41.25;103770.25;4968685;28;19930;-81
2022/01/18 10:22:41;;;;;;;;;;;;;;;20.24;41.29;103773.59;4952912;28;19930;-82
2022/01/18 10:25:12;;;;;;;;;;;;;;;20.24;41.23;103771.69;4965799;28;19922;-78
2022/01/18 10:27:38;;;;;;;;;;;;;;;20.26;41.31;103779.66;4952253;28;20322;-80
2022/01/18 10:30:05;;;;;;;;;;;;;;;20.27;41.39;103778.63;4953298;28;19930;-82
2022/01/18 10:32:38;;;;;;;;;;;;;;;20.28;41.27;103772.03;4955982;28;20263;-81
2022/01/18 10:35:05;;;;;;;;;;;;;;;20.28;41.28;103774.78;4949501;29;19935;-79
2022/01/18 10:37:32;;;;;;;;;;;;;;;20.29;41.01;103765.50;4952309;28;19930;-79
2022/01/18 10:40:06;;;;;;;;;;;;;;;20.30;41.27;103769.91;4967478;28;19923;-81
2022/01/18 10:42:38;;;;;;;;;;;;;;;20.30;41.09;103765.25;4948351;29;19918;-79
2022/01/18 10:45:06;;;;;;;;;;;;;;;20.32;41.20;103762.28;4950834;28;19926;-79
2022/01/18 10:47:32;;;;;;;;;;;;;;;20.31;41.32;103766.94;4952346;28;19965;-81
2022/01/18 10:50:05;;;;;;;;;;;;;;;20.34;40.99;103767.53;4965905;28;19923;-81
2022/01/18 10:52:30;;;;;;;;;;;;;;;20.34;40.94;103762.88;4950321;29;19989;-79
2022/01/18 10:54:57;;;;;;;;;;;;;;;20.34;41.07;103762.88;4965439;28;19930;-79
2022/01/18 10:57:23;;;;;;;;;;;;;;;20.35;41.14;103755.47;4951616;28;19926;-80
2022/01/18 11:00:01;;;;;;;;;;;;;;;20.36;41.23;103762.63;4963357;28;20439;-79
2022/01/18 11:02:26;;;;;;;;;;;;;;;20.36;41.19;103763.50;4953380;28;20417;-80
2022/01/18 11:04:53;;;;;;;;;;;;;;;20.37;40.91;103753.34;4951310;28;20017;-79
2022/01/18 11:07:20;;;;;;;;;;;;;;;20.37;41.03;103756.91;4953136;28;20359;-81
2022/01/18 11:09:46;;;;;;;;;;;;;;;20.39;40.80;103751.19;4952443;29;19966;-78
2022/01/18 11:12:11;;;;;;;;;;;;;;;20.39;41.02;103749.28;4953075;28;19969;-79
2022/01/18 11:14:39;;;;;;;;;;;;;;;20.40;40.95;103747.38;4953443;28;19922;-79
2022/01/18 11:17:06;;;;;;;;;;;;;;;20.40;40.64;103756.44;4966303;28;19915;-81
2022/01/18 11:19:34;;;;;;;;;;;;;;;20.41;41.05;103751.78;4934858;29;19945;-81
2022/01/18 11:22:06;;;;;;;;;;;;;;;20.42;40.90;103746.06;4951459;29;19918;-79
2022/01/18 11:24:34;;;;;;;;;;;;;;;20.42;40.94;103743.31;4951501;28;20367;-79
2022/01/18 11:27:00;;;;;;;;;;;;;;;20.44;40.80;103745.84;4952500;28;19926;-80
2022/01/18 11:29:26;;;;;;;;;;;;;;;20.45;41.03;103742.00;4949898;28;20069;-81
2022/01/18 11:31:52;;;;;;;;;;;;;;;20.45;41.04;103729.09;4949374;28;20009;-76
2022/01/18 11:34:43;;;;;;;;;;;;;;;20.46;41.00;103729.94;4963390;28;19923;-77
2022/01/18 11:37:27;;;;;;;;;;;;;;;20.47;41.05;103720.66;4951379;28;19925;-78
2022/01/18 11:39:58;;;;;;;;;;;;;;;20.46;40.95;103719.81;4947863;29;19934;-76
2022/01/18 11:42:36;;;;;;;;;;;;;;;20.47;40.83;103717.91;4951802;28;19922;-78
2022/01/18 11:45:21;;;;;;;;;;;;;;;20.47;40.82;103713.22;4949088;28;19922;-77
2022/01/18 11:47:57;;;;;;;;;;;;;;;20.48;40.91;103705.81;4945709;28;19926;-77
2022/01/18 11:50:26;;;;;;;;;;;;;;;20.48;40.95;103703.09;4948206;29;19922;-77
2022/01/18 11:53:15;;;;;;;;;;;;;;;20.48;40.73;103703.09;4966268;28;19929;-77
2022/01/18 11:55:43;;;;;;;;;;;;;;;20.49;40.73;103699.28;4950106;28;19926;-77
2022/01/18 11:58:12;;;;;;;;;;;;;;;20.49;40.84;103699.28;4952011;28;19926;-76
2022/01/18 12:00:46;;;;;;;;;;;;;;;20.48;40.94;103694.84;4949896;28;19930;-78
2022/01/18 12:03:15;;;;;;;;;;;;;;;20.49;40.84;103697.38;4968558;28;19929;-79
2022/01/18 12:05:43;;;;;;;;;;;;;;;20.50;40.92;103689.97;4952766;28;19930;-79
2022/01/18 12:08:08;;;;;;;;;;;;;;;20.50;40.66;103696.28;4952470;29;19985;-79
2022/01/18 12:10:34;;;;;;;;;;;;;;;20.50;40.68;103690.78;4966282;28;19931;-79
2022/01/18 12:13:01;;;;;;;;;;;;;;;20.50;40.61;103682.53;4968022;28;20302;-79
2022/01/18 12:15:26;;;;;;;;;;;;;;;20.51;40.51;103687.00;4968050;28;19923;-79
2022/01/18 12:17:53;;;;;;;;;;;;;;;20.52;40.61;103683.16;4951654;28;19933;-79
2022/01/18 12:20:33;;;;;;;;;;;;;;;20.52;40.79;103688.66;4952220;29;20025;-79
2022/01/18 12:23:03;;;;;;;;;;;;;;;20.53;40.64;103689.47;4969579;28;20300;-80
2022/01/18 12:25:30;;;;;;;;;;;;;;;20.54;40.77;103696.66;4950997;28;19918;-81
2022/01/18 12:27:56;;;;;;;;;;;;;;;20.54;40.71;103691.16;4951380;28;20413;-83
2022/01/18 12:30:53;;;;;;;;;;;;;;;20.54;40.76;103696.66;4967685;28;19945;-84
2022/01/18 12:33:19;;;;;;;;;;;;;;;20.53;40.62;103687.56;4948727;29;19933;-83
2022/01/18 12:35:45;;;;;;;;;;;;;;;20.56;40.69;103690.94;4952237;28;19926;-84
2022/01/18 12:38:20;;;;;;;;;;;;;;;20.55;40.62;103692.84;4951887;28;20406;-80
2022/01/18 12:40:46;;;;;;;;;;;;;;;20.56;40.76;103691.78;4951201;28;19922;-77
2022/01/18 12:45:39;;;;;;;;;;;;;;;20.56;40.48;103682.69;4952597;28;19945;-80
2022/01/18 12:48:04;;;;;;;;;;;;;;;20.56;40.67;103685.44;4950553;29;20069;-77
2022/01/18 12:50:32;;;;;;;;;;;;;;;20.57;40.45;103681.66;4952125;29;20001;-79
2022/01/18 12:53:02;;;;;;;;;;;;;;;20.57;40.54;103682.47;4964506;28;19923;-79
2022/01/18 12:55:41;;;;;;;;;;;;;;;20.58;40.42;103670.41;4966013;28;20303;-79
2022/01/18 12:58:07;;;;;;;;;;;;;;;20.58;40.53;103669.56;4952924;28;19918;-79
2022/01/18 13:00:43;;;;;;;;;;;;;;;20.58;40.53;103672.31;4951641;28;20024;-80
2022/01/18 13:03:08;;;;;;;;;;;;;;;20.57;40.67;103657.75;4950136;28;19922;-80
2022/01/18 13:05:34;;;;;;;;;;;;;;;20.58;40.62;103661.34;4949891;28;20306;-82
2022/01/18 13:08:00;;;;;;;;;;;;;;;20.57;40.41;103656.94;4956204;28;19926;-79
2022/01/18 13:10:40;;;;;;;;;;;;;;;20.57;40.22;103648.69;4951626;28;20426;-81
2022/01/18 13:13:06;;;;;;;;;;;;;;;20.58;40.43;103653.09;4950959;28;19988;-79
2022/01/18 13:26:39;;;;;;;;;;;;;;;20.57;40.24;103633.03;4949739;29;20026;-79
2022/01/18 13:29:12;;;;;;;;;;;;;;;20.57;40.54;103638.53;4949765;28;19937;-79
2022/01/18 13:31:38;;;;;;;;;;;;;;;20.57;40.33;103633.03;4949960;28;19931;-79
2022/01/18 13:34:04;;;;;;;;;;;;;;;20.58;40.42;103628.38;4951415;28;20013;-78
2022/01/18 13:36:31;;;;;;;;;;;;;;;20.58;40.30;103622.88;4951842;28;19930;-78
2022/01/18 13:38:57;;;;;;;;;;;;;;;20.57;40.43;103624.81;4949335;28;21239;-79
2022/01/18 13:41:24;;;;;;;;;;;;;;;20.57;40.48;103613.81;4951958;29;19922;-81
2022/01/18 13:43:50;;;;;;;;;;;;;;;20.57;40.23;103607.50;4966648;28;19997;-79
2022/01/18 13:46:22;;;;;;;;;;;;;;;20.57;40.22;103605.56;4951521;28;20450;-78
2022/01/18 13:48:48;;;;;;;;;;;;;;;20.58;40.29;103603.66;4952431;28;20438;-78
2022/01/18 13:51:14;;;;;;;;;;;;;;;20.57;40.32;103596.50;4951894;28;20025;-79
2022/01/18 13:53:40;;;;;;;;;;;;;;;20.57;40.05;103602.84;4955601;28;19918;-78